Time;durP1;ratioP1;P1;durP2;ratioP2;P2;SDS_P1;SDS_P2;PMS_P1;PMS_P2;Temp;Humidity;BMP_temperature;BMP_pressure;BME280_temperature;BME280_humidity;BME280_pressure;Samples;Min_cycle;Max_cycle;Signal;HPM_P1;HPM_P2
2021/01/24 00:01:53;;;;;;;6.47;5.83;;;4.60;99.90;;;;;;5031632;28;20452;-63
2021/01/24 00:04:20;;;;;;;6.23;5.63;;;4.60;99.90;;;;;;5031438;28;20499;-64
2021/01/24 00:06:46;;;;;;;7.97;7.27;;;4.60;99.90;;;;;;5031556;28;20444;-63
2021/01/24 00:09:13;;;;;;;9.20;8.30;;;4.60;99.90;;;;;;5031552;28;20476;-64
2021/01/24 00:11:39;;;;;;;8.30;7.50;;;4.60;99.90;;;;;;5031346;28;20445;-64
2021/01/24 00:14:06;;;;;;;10.07;8.37;;;4.60;99.90;;;;;;5031424;28;20822;-62
2021/01/24 00:16:32;;;;;;;7.67;6.87;;;4.60;99.90;;;;;;5031634;28;20444;-61
2021/01/24 00:18:58;;;;;;;9.67;8.70;;;4.60;99.90;;;;;;5031417;28;21017;-61
2021/01/24 00:21:24;;;;;;;9.43;7.80;;;4.60;99.90;;;;;;5031298;28;20459;-64
2021/01/24 00:23:50;;;;;;;8.23;7.50;;;4.60;99.90;;;;;;5031401;28;20499;-63
2021/01/24 00:26:18;;;;;;;7.97;7.17;;;4.60;99.90;;;;;;5034454;28;20441;-64
2021/01/24 00:28:44;;;;;;;8.43;7.57;;;4.60;99.90;;;;;;5035364;28;20468;-65
2021/01/24 00:31:10;;;;;;;8.77;7.37;;;4.50;99.90;;;;;;5035497;28;20452;-66
2021/01/24 00:33:36;;;;;;;9.10;8.17;;;4.50;99.90;;;;;;5035476;28;20445;-66
2021/01/24 00:36:03;;;;;;;8.90;8.10;;;4.40;99.90;;;;;;5035868;28;20989;-64
2021/01/24 00:38:29;;;;;;;8.47;7.57;;;4.40;99.90;;;;;;5035453;28;20487;-65
2021/01/24 00:40:56;;;;;;;8.87;7.90;;;4.50;99.90;;;;;;5035572;28;20449;-66
2021/01/24 00:43:23;;;;;;;9.87;8.90;;;4.40;99.90;;;;;;5035569;28;20444;-66
2021/01/24 00:45:50;;;;;;;8.33;7.50;;;4.40;99.90;;;;;;5035508;28;20522;-66
2021/01/24 00:48:16;;;;;;;8.77;7.87;;;4.40;99.90;;;;;;5035608;28;20532;-65
2021/01/24 00:50:42;;;;;;;8.63;7.80;;;4.40;99.90;;;;;;5035298;28;21033;-66
2021/01/24 00:53:09;;;;;;;8.27;7.57;;;4.40;99.90;;;;;;5035401;28;20449;-65
2021/01/24 00:55:35;;;;;;;9.77;8.77;;;4.40;99.90;;;;;;5035240;28;20483;-65
2021/01/24 00:58:01;;;;;;;11.90;7.70;;;4.40;99.90;;;;;;5035465;28;20476;-66
2021/01/24 01:00:29;;;;;;;8.63;7.73;;;4.30;99.90;;;;;;5034846;28;21001;-63
2021/01/24 01:02:55;;;;;;;8.30;7.50;;;4.20;99.90;;;;;;5034841;28;20444;-63
2021/01/24 01:05:21;;;;;;;8.67;7.77;;;4.20;99.90;;;;;;5034444;28;20464;-63
2021/01/24 01:07:47;;;;;;;8.93;8.13;;;4.20;99.90;;;;;;5034596;28;20463;-64
2021/01/24 01:10:14;;;;;;;7.70;7.00;;;4.20;99.90;;;;;;5034323;28;20445;-64
2021/01/24 01:12:40;;;;;;;8.97;8.07;;;4.10;99.90;;;;;;5034461;28;20449;-64
2021/01/24 01:15:07;;;;;;;8.80;8.00;;;4.10;99.90;;;;;;5034268;28;20461;-62
2021/01/24 01:17:34;;;;;;;8.37;7.40;;;4.10;99.90;;;;;;5034449;28;20483;-61
2021/01/24 01:20:01;;;;;;;9.30;8.37;;;4.10;99.90;;;;;;5034119;28;20444;-63
2021/01/24 01:22:27;;;;;;;9.33;8.40;;;4.10;99.90;;;;;;5034402;28;20449;-63
2021/01/24 01:24:53;;;;;;;7.33;6.73;;;4.10;99.90;;;;;;5034337;28;20469;-63
2021/01/24 01:27:19;;;;;;;8.97;8.17;;;4.20;99.90;;;;;;5034201;28;20444;-63
2021/01/24 01:29:46;;;;;;;8.00;7.20;;;4.20;99.90;;;;;;5034177;28;20969;-62
2021/01/24 01:32:12;;;;;;;8.13;7.40;;;4.10;99.90;;;;;;5034053;28;20915;-63
2021/01/24 01:34:39;;;;;;;8.40;7.70;;;4.00;99.90;;;;;;5034089;28;20500;-62
2021/01/24 01:37:05;;;;;;;8.23;7.50;;;3.90;99.90;;;;;;5032987;28;20494;-63
2021/01/24 01:39:31;;;;;;;8.03;7.07;;;3.80;99.90;;;;;;5033810;28;20481;-67
2021/01/24 01:41:57;;;;;;;7.03;6.33;;;3.70;99.90;;;;;;5033995;28;20441;-63
2021/01/24 01:44:24;;;;;;;7.50;6.60;;;3.60;99.90;;;;;;5033882;28;20460;-64
2021/01/24 01:46:55;;;;;;;6.93;6.30;;;3.50;99.90;;;;;;5033899;28;20480;-64
2021/01/24 01:49:24;;;;;;;6.30;5.70;;;3.40;99.90;;;;;;5033982;28;20445;-64
2021/01/24 01:51:51;;;;;;;3.50;3.30;;;3.30;99.90;;;;;;5033724;28;20507;-63
2021/01/24 01:54:18;;;;;;;4.63;2.80;;;2.90;99.90;;;;;;5033720;28;20473;-63
2021/01/24 01:56:44;;;;;;;3.37;3.07;;;2.60;99.90;;;;;;5033738;28;20449;-63
2021/01/24 01:59:10;;;;;;;4.07;3.77;;;2.20;99.90;;;;;;5033658;28;20902;-65
2021/01/24 02:02:00;;;;;;;6.07;5.47;;;2.00;99.90;;;;;;5033500;28;20805;-62
2021/01/24 02:04:34;;;;;;;8.40;7.60;;;1.70;99.90;;;;;;5033574;28;20487;-61
2021/01/24 02:07:07;;;;;;;10.90;9.80;;;1.60;99.90;;;;;;5033560;28;20445;-60
2021/01/24 02:09:39;;;;;;;10.20;9.10;;;1.50;99.90;;;;;;5033352;28;20942;-61
2021/01/24 02:12:12;;;;;;;12.30;11.00;;;1.40;99.90;;;;;;5033522;28;20444;-61
2021/01/24 02:14:42;;;;;;;10.63;9.53;;;1.20;99.90;;;;;;5033449;28;20488;-60
2021/01/24 02:17:13;;;;;;;12.83;11.50;;;1.20;99.90;;;;;;5033764;28;20807;-63
2021/01/24 02:19:49;;;;;;;12.80;10.30;;;1.10;99.90;;;;;;5033101;28;20994;-64
2021/01/24 02:22:18;;;;;;;10.43;9.30;;;1.00;99.90;;;;;;5033618;28;20805;-63
2021/01/24 02:24:50;;;;;;;10.27;9.03;;;1.00;99.90;;;;;;5034218;28;20461;-64
2021/01/24 02:27:22;;;;;;;9.73;8.73;;;0.90;99.90;;;;;;5034299;28;20818;-64
2021/01/24 02:29:59;;;;;;;9.10;8.20;;;0.90;99.90;;;;;;5034168;28;20437;-65
2021/01/24 02:32:27;;;;;;;10.00;8.93;;;0.80;99.90;;;;;;5033904;28;20784;-65
2021/01/24 02:34:57;;;;;;;12.30;8.87;;;0.70;99.90;;;;;;5033292;28;20468;-65
2021/01/24 02:37:24;;;;;;;8.53;7.73;;;0.70;99.90;;;;;;5033503;28;20441;-65
2021/01/24 02:39:52;;;;;;;8.80;7.90;;;0.70;99.90;;;;;;5033119;28;20488;-65
2021/01/24 02:42:20;;;;;;;11.20;8.90;;;0.70;99.90;;;;;;5033369;28;20437;-64
2021/01/24 02:44:46;;;;;;;8.37;7.50;;;0.60;99.90;;;;;;5033373;28;20465;-65
2021/01/24 02:47:13;;;;;;;9.47;8.33;;;0.60;99.90;;;;;;5033624;28;20449;-64
2021/01/24 02:49:42;;;;;;;12.03;8.77;;;0.60;99.90;;;;;;5033319;28;20914;-65
2021/01/24 02:52:09;;;;;;;9.40;8.50;;;0.60;99.90;;;;;;5033448;28;20780;-64
2021/01/24 02:54:37;;;;;;;9.80;8.20;;;0.60;99.90;;;;;;5032745;28;20476;-64
2021/01/24 02:57:04;;;;;;;8.60;7.47;;;0.60;99.90;;;;;;5033119;28;20440;-65
2021/01/24 02:59:33;;;;;;;10.97;8.27;;;0.60;99.90;;;;;;5032602;28;20488;-63
2021/01/24 03:01:59;;;;;;;8.37;7.20;;;0.60;99.90;;;;;;5032251;28;20456;-62
2021/01/24 03:04:26;;;;;;;7.80;6.60;;;0.60;99.90;;;;;;5032313;28;20465;-61
2021/01/24 03:06:53;;;;;;;6.30;5.70;;;0.50;99.90;;;;;;5032534;28;20522;-61
2021/01/24 03:09:19;;;;;;;8.90;5.87;;;0.50;99.90;;;;;;5032357;28;20784;-62
2021/01/24 03:11:48;;;;;;;5.40;4.90;;;0.50;99.90;;;;;;5033457;28;20449;-64
2021/01/24 03:14:18;;;;;;;5.37;4.70;;;0.50;99.90;;;;;;5033693;28;20469;-63
2021/01/24 03:16:47;;;;;;;5.87;4.83;;;0.50;99.90;;;;;;5034410;28;20448;-64
2021/01/24 03:19:16;;;;;;;5.70;5.17;;;0.50;99.90;;;;;;5033537;28;20477;-64
2021/01/24 03:21:43;;;;;;;6.30;5.63;;;0.40;99.90;;;;;;5031994;28;20452;-64
2021/01/24 03:24:11;;;;;;;7.70;5.60;;;0.50;99.90;;;;;;5032117;28;20830;-64
2021/01/24 03:26:37;;;;;;;7.73;6.90;;;0.50;99.90;;;;;;5032153;28;20445;-66
2021/01/24 03:29:04;;;;;;;9.30;7.17;;;0.50;99.90;;;;;;5033231;28;20449;-65
2021/01/24 03:31:32;;;;;;;11.57;9.00;;;0.50;99.90;;;;;;5032067;28;20437;-67
2021/01/24 03:33:58;;;;;;;11.07;9.97;;;0.50;99.90;;;;;;5032755;28;20930;-67
2021/01/24 03:36:25;;;;;;;17.20;11.17;;;0.50;99.90;;;;;;5034105;28;20440;-67
2021/01/24 03:38:51;;;;;;;13.73;11.00;;;0.50;99.90;;;;;;5034309;28;20563;-68
2021/01/24 03:41:18;;;;;;;17.73;15.07;;;0.50;99.90;;;;;;5034924;28;20511;-68
2021/01/24 03:43:44;;;;;;;15.40;13.20;;;0.50;99.90;;;;;;5034599;28;20448;-67
2021/01/24 03:46:11;;;;;;;16.90;15.07;;;0.50;99.90;;;;;;5032398;28;20448;-67
2021/01/24 03:48:37;;;;;;;18.73;14.50;;;0.50;99.90;;;;;;5033044;28;20444;-68
2021/01/24 03:51:04;;;;;;;19.20;15.83;;;0.50;99.90;;;;;;5033038;28;20491;-68
2021/01/24 03:53:31;;;;;;;24.60;16.33;;;0.50;99.90;;;;;;5034458;28;20441;-66
2021/01/24 03:55:57;;;;;;;31.27;15.93;;;0.40;99.90;;;;;;5035351;28;20523;-67
2021/01/24 03:58:24;;;;;;;24.00;16.20;;;0.50;99.90;;;;;;5035242;28;20493;-68
2021/01/24 04:00:51;;;;;;;23.20;14.60;;;0.50;99.90;;;;;;5031982;28;20441;-67
2021/01/24 04:03:17;;;;;;;20.13;13.60;;;0.50;99.90;;;;;;5032674;28;20452;-68
2021/01/24 04:05:43;;;;;;;20.87;13.93;;;0.50;99.90;;;;;;5031790;28;20849;-66
2021/01/24 04:08:09;;;;;;;18.50;13.03;;;0.40;99.90;;;;;;5031551;28;20967;-65
2021/01/24 04:10:35;;;;;;;19.93;13.93;;;0.50;99.90;;;;;;5031360;28;20449;-65
2021/01/24 04:13:02;;;;;;;19.80;13.90;;;0.40;99.90;;;;;;5031672;28;20449;-67
2021/01/24 04:15:29;;;;;;;23.97;13.33;;;0.50;99.90;;;;;;5031507;28;20461;-67
2021/01/24 04:17:55;;;;;;;21.43;13.00;;;0.50;99.90;;;;;;5031340;28;20441;-68
2021/01/24 04:20:22;;;;;;;19.27;13.60;;;0.40;99.90;;;;;;5031395;28;20445;-68
2021/01/24 04:22:49;;;;;;;16.77;12.07;;;0.40;99.90;;;;;;5031394;28;20572;-68
2021/01/24 04:25:18;;;;;;;19.40;12.90;;;0.40;99.90;;;;;;5031343;28;20471;-69
2021/01/24 04:27:44;;;;;;;22.37;13.77;;;0.50;99.90;;;;;;5031423;28;20452;-69
2021/01/24 04:30:11;;;;;;;18.10;12.03;;;0.40;99.90;;;;;;5031079;28;20441;-69
2021/01/24 04:32:39;;;;;;;20.30;12.30;;;0.50;99.90;;;;;;5031297;28;20460;-70
2021/01/24 04:35:06;;;;;;;13.83;9.10;;;0.40;99.90;;;;;;5031244;28;20446;-69
2021/01/24 04:37:33;;;;;;;17.40;9.93;;;0.40;99.90;;;;;;5031228;28;20444;-70
2021/01/24 04:39:59;;;;;;;16.50;10.07;;;0.40;99.90;;;;;;5031201;28;20551;-71
2021/01/24 04:42:25;;;;;;;14.53;8.73;;;0.40;99.90;;;;;;5031188;28;20453;-71
2021/01/24 04:44:52;;;;;;;15.23;8.40;;;0.40;99.90;;;;;;5031114;28;20476;-70
2021/01/24 04:47:20;;;;;;;14.93;8.33;;;0.40;99.90;;;;;;5031373;28;20445;-71
2021/01/24 04:49:47;;;;;;;11.23;6.83;;;0.40;99.90;;;;;;5030919;28;20441;-71
2021/01/24 04:52:14;;;;;;;11.90;7.70;;;0.40;99.90;;;;;;5031123;28;20939;-71
2021/01/24 04:54:42;;;;;;;14.73;8.90;;;0.40;99.90;;;;;;5030914;28;20473;-70
2021/01/24 04:57:10;;;;;;;20.97;9.00;;;0.30;99.90;;;;;;5031054;28;20838;-70
2021/01/24 04:59:36;;;;;;;13.30;7.47;;;0.40;99.90;;;;;;5030784;28;20476;-71
2021/01/24 05:02:03;;;;;;;12.90;9.13;;;0.40;99.90;;;;;;5031172;28;20449;-70
2021/01/24 05:04:29;;;;;;;13.27;8.23;;;0.30;99.90;;;;;;5030879;28;20472;-70
2021/01/24 05:06:56;;;;;;;15.50;9.30;;;0.40;99.90;;;;;;5031118;28;20449;-69
2021/01/24 05:09:22;;;;;;;12.83;8.40;;;0.30;99.90;;;;;;5030978;28;20480;-70
2021/01/24 05:11:50;;;;;;;17.07;9.97;;;0.30;99.90;;;;;;5032767;28;20467;-70
2021/01/24 05:14:18;;;;;;;21.20;9.73;;;0.30;99.90;;;;;;5034618;28;20457;-70
2021/01/24 05:16:47;;;;;;;19.50;10.60;;;0.30;99.90;;;;;;5034660;28;20441;-70
2021/01/24 05:19:14;;;;;;;19.53;11.43;;;0.30;99.90;;;;;;5034442;28;20554;-73
2021/01/24 05:21:41;;;;;;;19.00;9.50;;;0.30;99.90;;;;;;5034540;28;20445;-73
2021/01/24 05:24:09;;;;;;;17.77;11.37;;;0.30;99.90;;;;;;5034419;28;20472;-73
2021/01/24 05:26:37;;;;;;;21.93;11.80;;;0.30;99.90;;;;;;5034461;28;20445;-73
2021/01/24 05:29:04;;;;;;;24.27;12.10;;;0.30;99.90;;;;;;5034637;28;20768;-71
2021/01/24 05:31:31;;;;;;;22.13;12.90;;;0.30;99.90;;;;;;5034558;28;20885;-73
2021/01/24 05:33:57;;;;;;;20.50;12.60;;;0.30;99.90;;;;;;5034471;28;20499;-73
2021/01/24 05:36:25;;;;;;;26.20;13.83;;;0.30;99.90;;;;;;5034493;28;20441;-73
2021/01/24 05:38:53;;;;;;;59.53;14.83;;;0.40;99.90;;;;;;5034486;28;20550;-73
2021/01/24 05:41:20;;;;;;;29.83;13.60;;;0.40;99.90;;;;;;5034232;28;20495;-73
2021/01/24 05:43:47;;;;;;;29.10;14.70;;;0.40;99.90;;;;;;5034181;28;20453;-73
2021/01/24 05:46:13;;;;;;;30.40;16.40;;;0.30;99.90;;;;;;5034426;28;20449;-73
2021/01/24 05:48:48;;;;;;;32.33;14.23;;;0.30;99.90;;;;;;5034571;28;20441;-72
2021/01/24 05:51:16;;;;;;;20.30;12.50;;;0.40;99.90;;;;;;5033895;28;20451;-72
2021/01/24 05:53:45;;;;;;;25.40;11.90;;;0.40;99.90;;;;;;5034010;28;20799;-72
2021/01/24 05:56:16;;;;;;;33.67;13.27;;;0.40;99.90;;;;;;5034200;28;20449;-73
2021/01/24 05:58:43;;;;;;;16.30;9.83;;;0.40;99.90;;;;;;5033856;28;20481;-72
2021/01/24 06:01:09;;;;;;;16.37;9.00;;;0.30;99.90;;;;;;5033619;28;21100;-72
2021/01/24 06:03:36;;;;;;;19.30;9.67;;;0.40;99.90;;;;;;5033953;28;20448;-74
2021/01/24 06:06:03;;;;;;;17.80;10.20;;;0.40;99.90;;;;;;5033967;28;20480;-72
2021/01/24 06:08:29;;;;;;;23.00;12.87;;;0.40;99.90;;;;;;5033764;28;20441;-72
2021/01/24 06:10:58;;;;;;;19.67;10.50;;;0.40;99.90;;;;;;5033840;28;20465;-73
2021/01/24 06:13:26;;;;;;;20.70;12.03;;;0.40;99.90;;;;;;5033907;28;20437;-72
2021/01/24 06:15:53;;;;;;;27.87;15.23;;;0.40;99.90;;;;;;5033776;28;20465;-74
2021/01/24 06:18:24;;;;;;;25.07;13.83;;;0.40;99.90;;;;;;5033859;28;20477;-72
2021/01/24 06:20:56;;;;;;;29.57;16.83;;;0.40;99.90;;;;;;5033536;28;20440;-74
2021/01/24 06:23:27;;;;;;;25.37;14.93;;;0.50;99.90;;;;;;5032958;28;20445;-73
2021/01/24 06:25:59;;;;;;;31.33;17.63;;;0.50;99.90;;;;;;5033507;28;20469;-71
2021/01/24 06:28:31;;;;;;;27.40;16.03;;;0.50;99.90;;;;;;5033114;28;20446;-72
2021/01/24 06:30:58;;;;;;;39.50;19.40;;;0.50;99.90;;;;;;5032886;28;20449;-72
2021/01/24 06:33:24;;;;;;;39.30;22.27;;;0.50;99.90;;;;;;5033033;28;20469;-72
2021/01/24 06:35:52;;;;;;;43.57;23.50;;;0.50;99.90;;;;;;5033120;28;20465;-73
2021/01/24 06:38:31;;;;;;;48.50;25.93;;;0.50;99.90;;;;;;5032718;28;20493;-73
2021/01/24 06:40:59;;;;;;;50.93;27.90;;;0.50;99.90;;;;;;5032793;28;20520;-71
2021/01/24 06:43:33;;;;;;;56.87;28.57;;;0.50;99.90;;;;;;5033064;28;20444;-72
2021/01/24 06:46:00;;;;;;;51.23;27.37;;;0.60;99.90;;;;;;5032823;28;20465;-71
2021/01/24 06:48:47;;;;;;;51.87;26.37;;;0.60;99.90;;;;;;5032869;28;20794;-70
2021/01/24 06:51:34;;;;;;;46.37;26.50;;;0.60;99.90;;;;;;5032418;28;20924;-71
2021/01/24 06:54:01;;;;;;;53.83;30.63;;;0.60;99.90;;;;;;5032433;28;20449;-71
2021/01/24 06:56:39;;;;;;;49.90;27.33;;;0.60;99.90;;;;;;5032837;28;20459;-72
2021/01/24 06:59:06;;;;;;;47.40;29.60;;;0.60;99.90;;;;;;5032489;28;20488;-71
2021/01/24 07:01:34;;;;;;;52.80;29.83;;;0.60;99.90;;;;;;5032385;28;20440;-70
2021/01/24 07:04:42;;;;;;;63.03;31.73;;;0.60;99.90;;;;;;5032412;28;20961;-69
2021/01/24 07:07:31;;;;;;;59.93;38.77;;;0.70;99.90;;;;;;5032427;28;20449;-69
2021/01/24 07:09:57;;;;;;;65.30;35.57;;;0.70;99.90;;;;;;5032287;28;20821;-70
2021/01/24 07:12:37;;;;;;;70.03;38.40;;;0.70;99.90;;;;;;5032226;28;20449;-70
2021/01/24 07:15:06;;;;;;;71.90;38.90;;;0.70;99.90;;;;;;5032362;28;20469;-70
2021/01/24 07:17:33;;;;;;;80.90;40.80;;;0.70;99.90;;;;;;5032266;28;20447;-69
2021/01/24 07:20:01;;;;;;;81.33;39.83;;;0.70;99.90;;;;;;5031950;28;20481;-69
2021/01/24 07:22:29;;;;;;;87.17;40.30;;;0.70;99.90;;;;;;5032077;28;20449;-70
2021/01/24 07:24:56;;;;;;;81.13;42.27;;;0.70;99.90;;;;;;5032094;28;20530;-68
2021/01/24 07:27:24;;;;;;;107.73;48.63;;;0.70;99.90;;;;;;5032074;28;21001;-69
2021/01/24 07:29:50;;;;;;;109.63;51.57;;;0.70;99.90;;;;;;5031946;28;20448;-71
2021/01/24 07:32:18;;;;;;;112.60;51.30;;;0.70;99.90;;;;;;5031966;28;20511;-69
2021/01/24 07:34:46;;;;;;;137.70;53.87;;;0.70;99.90;;;;;;5030946;28;20473;-70
2021/01/24 07:37:13;;;;;;;130.90;54.20;;;0.70;99.90;;;;;;5031903;28;20441;-70
2021/01/24 07:39:40;;;;;;;134.57;61.67;;;0.80;99.90;;;;;;5031679;28;20476;-68
2021/01/24 07:42:07;;;;;;;138.17;59.40;;;0.70;99.90;;;;;;5031837;28;20449;-70
2021/01/24 07:44:33;;;;;;;148.33;59.63;;;0.80;99.90;;;;;;5031990;28;20461;-69
2021/01/24 07:46:59;;;;;;;134.30;60.60;;;0.80;99.90;;;;;;5031745;28;20788;-68
2021/01/24 07:49:26;;;;;;;144.43;57.10;;;0.80;99.90;;;;;;5031733;28;20499;-69
2021/01/24 07:51:53;;;;;;;127.87;56.53;;;0.80;99.90;;;;;;5031467;28;20814;-68
2021/01/24 07:54:20;;;;;;;135.60;61.73;;;0.90;99.90;;;;;;5031464;28;20480;-68
2021/01/24 07:56:47;;;;;;;152.67;62.20;;;0.90;99.90;;;;;;5031812;28;20453;-69
2021/01/24 07:59:15;;;;;;;142.23;56.50;;;0.90;99.90;;;;;;5031592;28;20527;-68
2021/01/24 08:01:42;;;;;;;152.80;62.97;;;0.90;99.90;;;;;;5031441;28;20503;-69
2021/01/24 08:04:08;;;;;;;158.80;64.27;;;0.90;99.90;;;;;;5023186;28;20520;-68
2021/01/24 08:06:36;;;;;;;165.17;63.63;;;0.90;99.90;;;;;;5019888;28;20527;-69
2021/01/24 08:09:05;;;;;;;141.17;58.30;;;1.00;99.90;;;;;;5019744;28;20456;-68
2021/01/24 08:11:32;;;;;;;149.13;59.07;;;1.00;99.90;;;;;;5019688;28;20448;-68
2021/01/24 08:13:58;;;;;;;142.30;59.50;;;1.00;99.90;;;;;;5019314;28;20539;-68
2021/01/24 08:16:28;;;;;;;140.53;59.83;;;1.10;99.90;;;;;;5019690;28;20449;-68
2021/01/24 08:18:56;;;;;;;137.90;55.17;;;1.10;99.90;;;;;;5018944;28;20563;-68
2021/01/24 08:21:23;;;;;;;140.60;53.40;;;1.10;99.90;;;;;;5019429;28;20449;-68
2021/01/24 08:23:50;;;;;;;113.13;52.23;;;1.10;99.90;;;;;;5019578;28;20500;-69
2021/01/24 08:26:18;;;;;;;120.17;51.87;;;1.20;99.90;;;;;;5019753;28;20449;-69
2021/01/24 08:28:46;;;;;;;108.63;47.33;;;1.20;99.90;;;;;;5019917;28;20519;-68
2021/01/24 08:31:17;;;;;;;120.33;48.57;;;1.30;99.90;;;;;;5024435;28;20445;-70
2021/01/24 08:33:44;;;;;;;115.30;48.07;;;1.30;99.90;;;;;;5025122;28;20456;-70
2021/01/24 08:36:13;;;;;;;117.73;45.73;;;1.30;99.90;;;;;;5026572;28;21248;-70
2021/01/24 08:38:41;;;;;;;112.33;47.30;;;1.30;99.90;;;;;;5025334;28;20542;-69
2021/01/24 08:41:08;;;;;;;110.00;47.47;;;1.40;99.90;;;;;;5020019;28;20472;-70
2021/01/24 08:43:36;;;;;;;118.37;49.00;;;1.40;99.90;;;;;;5019561;28;21281;-70
2021/01/24 08:46:20;;;;;;;134.57;54.50;;;1.40;99.90;;;;;;5020515;28;20473;-69
2021/01/24 08:49:02;;;;;;;141.73;61.70;;;1.40;99.90;;;;;;5023729;28;21341;-69
2021/01/24 08:51:50;;;;;;;163.40;62.83;;;1.40;99.90;;;;;;5023192;28;20559;-70
2021/01/24 08:54:18;;;;;;;145.47;61.47;;;1.40;99.90;;;;;;5023077;28;20496;-69
2021/01/24 08:56:45;;;;;;;125.97;54.50;;;1.50;99.90;;;;;;5023117;28;20523;-69
2021/01/24 08:59:24;;;;;;;123.50;50.13;;;1.50;99.90;;;;;;5022994;28;20595;-70
2021/01/24 09:01:52;;;;;;;124.73;51.53;;;1.60;99.90;;;;;;5022821;28;20533;-69
2021/01/24 09:04:25;;;;;;;110.93;53.93;;;1.50;99.90;;;;;;5023068;28;20548;-69
2021/01/24 09:07:08;;;;;;;105.63;46.70;;;1.50;99.90;;;;;;5023057;28;20953;-69
2021/01/24 09:09:37;;;;;;;117.13;50.77;;;1.50;99.90;;;;;;5022478;28;20440;-70
2021/01/24 09:12:05;;;;;;;111.83;48.93;;;1.50;99.90;;;;;;5022903;28;20449;-70
2021/01/24 09:14:33;;;;;;;115.13;48.77;;;1.50;99.90;;;;;;5022819;28;20492;-69
2021/01/24 09:17:08;;;;;;;114.13;46.60;;;1.50;99.90;;;;;;5022851;28;20448;-69
2021/01/24 09:19:37;;;;;;;113.97;50.80;;;1.50;99.90;;;;;;5022513;28;20557;-69
2021/01/24 09:22:06;;;;;;;114.50;51.53;;;1.50;99.90;;;;;;5022534;28;20449;-69
2021/01/24 09:24:33;;;;;;;104.17;47.77;;;1.50;99.90;;;;;;5022070;28;21727;-69
2021/01/24 09:27:02;;;;;;;101.80;46.53;;;1.60;99.90;;;;;;5022553;28;20998;-69
2021/01/24 09:29:29;;;;;;;94.20;46.70;;;1.50;99.90;;;;;;5022464;28;20540;-69
2021/01/24 09:31:57;;;;;;;87.60;39.77;;;1.60;99.90;;;;;;5022534;28;20483;-68
2021/01/24 09:34:24;;;;;;;91.47;37.87;;;1.60;99.90;;;;;;5022242;28;20480;-68
2021/01/24 09:36:51;;;;;;;79.17;37.23;;;1.60;99.90;;;;;;5022494;28;20612;-68
2021/01/24 09:39:18;;;;;;;83.93;37.10;;;1.60;99.90;;;;;;5022372;28;20483;-68
2021/01/24 09:41:45;;;;;;;79.40;37.90;;;1.70;99.90;;;;;;5022339;28;20452;-69
2021/01/24 09:44:12;;;;;;;79.50;38.60;;;1.70;99.90;;;;;;5021936;28;20504;-69
2021/01/24 09:46:38;;;;;;;77.13;33.93;;;1.70;99.90;;;;;;5021398;28;20453;-68
2021/01/24 09:49:07;;;;;;;66.13;34.10;;;1.80;99.90;;;;;;5021305;28;20437;-66
2021/01/24 09:51:33;;;;;;;73.70;32.57;;;1.90;99.90;;;;;;5021671;28;20508;-67
2021/01/24 09:54:00;;;;;;;62.67;31.83;;;2.00;99.90;;;;;;5021901;28;20449;-66
2021/01/24 09:56:28;;;;;;;52.37;29.67;;;2.10;99.90;;;;;;5022150;28;21039;-66
2021/01/24 09:58:57;;;;;;;57.43;29.20;;;2.10;99.90;;;;;;5021525;28;21321;-67
2021/01/24 10:01:24;;;;;;;71.80;31.50;;;2.10;99.90;;;;;;5021975;28;20449;-67
2021/01/24 10:03:51;;;;;;;77.93;35.30;;;2.10;99.90;;;;;;5021985;28;20445;-68
2021/01/24 10:06:20;;;;;;;67.80;31.33;;;2.20;99.90;;;;;;5021276;28;20540;-66
2021/01/24 10:08:47;;;;;;;64.93;31.40;;;2.30;99.90;;;;;;5021720;28;20449;-66
2021/01/24 10:11:15;;;;;;;53.60;29.38;;;2.30;99.90;;;;;;5021422;28;20449;-65
2021/01/24 10:13:42;;;;;;;60.10;28.43;;;2.20;99.90;;;;;;5021745;28;20602;-66
2021/01/24 10:16:09;;;;;;;71.33;30.70;;;2.30;99.90;;;;;;5021610;28;20480;-65
2021/01/24 10:18:36;;;;;;;47.73;27.20;;;2.40;99.90;;;;;;5021561;28;20445;-66
2021/01/24 10:21:03;;;;;;;54.50;26.00;;;2.50;99.90;;;;;;5021412;28;21102;-65
2021/01/24 10:23:31;;;;;;;50.33;26.50;;;2.60;99.90;;;;;;5021671;28;20475;-66
2021/01/24 10:25:57;;;;;;;58.10;26.30;;;2.70;99.90;;;;;;5021488;28;20473;-67
2021/01/24 10:28:24;;;;;;;59.03;30.63;;;2.60;99.90;;;;;;5021364;28;20459;-67
2021/01/24 10:30:52;;;;;;;54.03;23.70;;;2.70;99.90;;;;;;5023364;28;20456;-66
2021/01/24 10:33:19;;;;;;;52.97;23.20;;;2.80;99.90;;;;;;5021789;28;20453;-65
2021/01/24 10:35:46;;;;;;;42.60;22.23;;;2.80;99.90;;;;;;5021403;28;20473;-66
2021/01/24 10:38:14;;;;;;;27.60;16.13;;;2.80;99.90;;;;;;5020711;28;21241;-66
2021/01/24 10:40:42;;;;;;;40.57;19.33;;;2.80;99.90;;;;;;5020908;28;20317;-67
2021/01/24 10:43:10;;;;;;;43.13;19.23;;;3.00;99.90;;;;;;5020826;28;20453;-67
2021/01/24 10:45:37;;;;;;;43.30;22.37;;;3.00;99.90;;;;;;5021059;28;20563;-66
2021/01/24 10:48:06;;;;;;;37.63;21.23;;;3.00;99.90;;;;;;5021047;28;20448;-65
2021/01/24 10:50:35;;;;;;;42.40;20.00;;;2.90;99.90;;;;;;5021120;28;20473;-67
2021/01/24 10:53:02;;;;;;;28.52;15.10;;;2.80;99.90;;;;;;5020037;28;20450;-69
2021/01/24 10:55:29;;;;;;;28.02;17.38;;;2.80;99.90;;;;;;5020957;28;20563;-68
2021/01/24 10:57:57;;;;;;;25.60;17.58;;;2.80;99.90;;;;;;5025319;28;20510;-67
2021/01/24 11:00:24;;;;;;;34.57;19.97;;;2.90;99.90;;;;;;5031940;28;20261;-67
2021/01/24 11:02:50;;;;;;;38.77;16.30;;;3.00;99.90;;;;;;5026682;28;20532;-66
2021/01/24 11:05:17;;;;;;;25.63;17.67;;;3.10;99.90;;;;;;5025169;28;20477;-67
2021/01/24 11:07:44;;;;;;;28.60;19.50;;;3.20;99.90;;;;;;5024373;28;20532;-66
2021/01/24 11:10:12;;;;;;;27.97;17.80;;;3.40;99.90;;;;;;5025351;28;20518;-67
2021/01/24 11:12:39;;;;;;;36.57;20.90;;;3.40;99.90;;;;;;5029954;28;20453;-66
2021/01/24 11:15:08;;;;;;;32.03;20.10;;;3.30;99.90;;;;;;5028582;28;20480;-67
2021/01/24 11:17:34;;;;;;;34.90;21.37;;;3.40;99.90;;;;;;5024245;28;20554;-67
2021/01/24 11:20:01;;;;;;;34.70;21.10;;;3.50;99.90;;;;;;5025748;28;21213;-65
2021/01/24 11:22:28;;;;;;;52.10;23.87;;;3.50;99.90;;;;;;5023377;28;20475;-66
2021/01/24 11:24:55;;;;;;;32.67;22.00;;;3.50;99.90;;;;;;5022891;28;20480;-66
2021/01/24 11:27:21;;;;;;;43.50;23.17;;;3.50;99.90;;;;;;5023881;28;20452;-66
2021/01/24 11:29:48;;;;;;;35.83;23.13;;;3.40;99.90;;;;;;5022254;28;20453;-65
2021/01/24 11:32:16;;;;;;;38.17;24.63;;;3.40;99.90;;;;;;5021198;28;20449;-65
2021/01/24 11:34:42;;;;;;;35.10;24.03;;;3.50;99.90;;;;;;5021341;28;20469;-65
2021/01/24 11:37:10;;;;;;;33.30;21.30;;;3.60;99.90;;;;;;5021247;28;21046;-65
2021/01/24 11:39:36;;;;;;;35.40;21.90;;;3.60;99.90;;;;;;5022358;28;20477;-65
2021/01/24 11:42:04;;;;;;;28.38;20.08;;;3.60;99.90;;;;;;5022208;28;20565;-65
2021/01/24 11:44:31;;;;;;;27.80;18.30;;;3.50;99.90;;;;;;5021062;28;20504;-64
2021/01/24 11:46:58;;;;;;;28.30;19.03;;;3.50;99.90;;;;;;5021571;28;20473;-65
2021/01/24 11:49:26;;;;;;;29.23;18.03;;;3.40;99.90;;;;;;5020927;28;20444;-65
2021/01/24 11:51:52;;;;;;;32.17;21.47;;;3.40;99.90;;;;;;5020609;28;20437;-65
2021/01/24 11:54:19;;;;;;;33.70;19.67;;;3.40;99.90;;;;;;5020314;28;20485;-65
2021/01/24 11:56:46;;;;;;;27.00;19.50;;;3.50;99.90;;;;;;5020720;28;20461;-65
2021/01/24 11:59:13;;;;;;;28.70;19.63;;;3.60;99.90;;;;;;5020585;28;21020;-64
2021/01/24 12:01:40;;;;;;;24.40;18.73;;;3.70;99.90;;;;;;5021032;28;20549;-65
2021/01/24 12:04:07;;;;;;;27.57;19.43;;;3.90;99.90;;;;;;5021393;28;20479;-64
2021/01/24 12:06:34;;;;;;;23.63;19.00;;;4.00;99.90;;;;;;5021480;28;20485;-65
2021/01/24 12:09:01;;;;;;;25.45;19.85;;;4.30;99.90;;;;;;5021178;28;21161;-65
2021/01/24 12:11:28;;;;;;;29.87;20.40;;;4.50;99.90;;;;;;5020509;28;20633;-64
2021/01/24 12:13:55;;;;;;;26.77;18.10;;;4.70;99.90;;;;;;5019145;28;20531;-65
2021/01/24 12:16:23;;;;;;;24.27;19.67;;;4.80;99.90;;;;;;5020178;28;20743;-66
2021/01/24 12:18:52;;;;;;;28.37;16.60;;;5.10;99.90;;;;;;5020029;28;20934;-65
2021/01/24 12:21:19;;;;;;;24.00;17.83;;;5.50;99.90;;;;;;5021115;28;20532;-65
2021/01/24 12:23:47;;;;;;;29.37;20.13;;;5.80;99.90;;;;;;5023856;28;20595;-64
2021/01/24 12:26:16;;;;;;;25.53;19.10;;;6.70;99.90;;;;;;5024140;28;21240;-64
2021/01/24 12:28:42;;;;;;;26.80;19.93;;;6.30;99.90;;;;;;5023857;28;20453;-66
2021/01/24 12:31:09;;;;;;;24.37;21.90;;;6.10;99.90;;;;;;5023988;28;20452;-65
2021/01/24 12:33:36;;;;;;;26.50;20.83;;;6.00;99.90;;;;;;5023994;28;20920;-64
2021/01/24 12:36:04;;;;;;;28.80;22.10;;;6.00;99.90;;;;;;5023880;28;20805;-65
2021/01/24 12:38:31;;;;;;;33.93;21.83;;;5.70;99.90;;;;;;5023714;28;20455;-65
2021/01/24 12:40:59;;;;;;;23.70;20.30;;;5.50;99.90;;;;;;5023087;28;20583;-65
2021/01/24 12:43:27;;;;;;;31.63;21.57;;;5.60;99.90;;;;;;5023380;28;20448;-64
2021/01/24 12:45:53;;;;;;;22.95;19.40;;;5.70;99.90;;;;;;5023266;28;20886;-65